Nyk Constellation — V7NP4 — position and weather

sailwx.info

Track history (hours):
 
Tides and Currents Weather Stations Pressure Air Temp Water Temp Dewpoint Dewpoint Depression Visibility Wind Speed Wind Dir Waves Ship Positions

Nyk Constellation

Last reported at 2015-Apr-28 02:24 UTC. Time now 2015-Apr-28 18:19 UTC.
Position N 40°24' W 070°53'.

Length 294 m; draft 11.6 m.

Type: Cargo ship. MMSI: 538002992.

Date/timePositionNaut miles runAvg speedWind from/ knotsBaromVisibWave heightAir tempDewpointWater temp
2015-Apr-28 02:24N 40°24' W 070°53'1417.2
2015-Apr-28 01:33N 40°24' W 071°12'1717.4
2015-Apr-28 00:33N 40°24' W 071°35'1817.5
2015-Apr-27 23:33N 40°23' W 071°58'1817.6
2015-Apr-27 22:34N 40°22' W 072°21'1817.5
2015-Apr-27 21:33N 40°22' W 072°44'1817.5
2015-Apr-27 20:32N 40°22' W 073°07'1312.5
2015-Apr-27 19:28N 40°23' W 073°25'9 9.7
2015-Apr-27 18:33N 40°25' W 073°36'10 9.9
2015-Apr-27 17:33N 40°27' W 073°49'9 9.2
2015-Apr-27 16:34N 40°31' W 073°59'9 9.2
2015-Apr-27 15:33N 40°39' W 074°05'4 4.0
2015-Apr-27 14:33N 40°39' W 074°11'1 0.5
2015-Apr-27 13:30N 40°39' W 074°11'0 0.0
2015-Apr-27 12:33N 40°39' W 074°11'0 0.0
2015-Apr-27 11:33N 40°39' W 074°11'0 0.0
2015-Apr-27 10:27N 40°39' W 074°11'0 0.0
2015-Apr-27 09:33N 40°39' W 074°11'0 0.0
2015-Apr-27 08:33N 40°39' W 074°11'0 0.0
2015-Apr-27 07:33N 40°39' W 074°11'0 0.0
2015-Apr-27 06:27N 40°39' W 074°11'0 0.0
2015-Apr-27 05:33N 40°39' W 074°11'0 0.0
2015-Apr-27 04:33N 40°39' W 074°11'0 0.0
2015-Apr-27 03:33N 40°39' W 074°11'0 0.0
2015-Apr-27 02:33N 40°39' W 074°11'0 0.0
2015-Apr-27 01:33N 40°39' W 074°11'0 0.0
2015-Apr-27 00:33N 40°39' W 074°11'0 0.0
2015-Apr-26 23:33N 40°39' W 074°11'0 0.0
2015-Apr-26 22:33N 40°39' W 074°11'0 0.5
2015-Apr-26 21:33N 40°39' W 074°11'6 5.7
2015-Apr-26 20:33N 40°38' W 074°03'1110.8
2015-Apr-26 19:33N 40°29' W 073°55'8 7.6
2015-Apr-26 18:33N 40°25' W 073°47'9 8.7
2015-Apr-26 17:32N 40°16' W 073°46'9 9.5
2015-Apr-26 16:33N 40°07' W 073°45'1110.7
2015-Apr-26 15:33N 39°56' W 073°42'1615.6
2015-Apr-26 14:33N 39°41' W 073°41'1717.1
2015-Apr-26 13:33N 39°24' W 073°47'  
2015-Apr-24 07:33N 31°57' W 080°27'10 9.7
2015-Apr-24 06:33N 31°57' W 080°39'1111.1
2015-Apr-24 05:33N 32°02' W 080°51'10 9.6
2015-Apr-24 04:33N 32°06' W 081°01'5 4.7
2015-Apr-24 03:33N 32°06' W 081°07'2 1.9
2015-Apr-24 02:33N 32°07' W 081°08'0 0.0
2015-Apr-24 01:33N 32°07' W 081°08'0 0.0
2015-Apr-24 00:33N 32°07' W 081°08'0 0.0
2015-Apr-23 23:32N 32°07' W 081°08'0 0.0
2015-Apr-23 22:32N 32°07' W 081°08'0 0.0
2015-Apr-23 21:32N 32°07' W 081°08'0 0.0
2015-Apr-23 20:32N 32°07' W 081°08'0 0.0
2015-Apr-23 19:32N 32°07' W 081°08'0 0.0
2015-Apr-23 18:32N 32°07' W 081°08'0 0.0
2015-Apr-23 17:32N 32°07' W 081°08'0 0.0
2015-Apr-23 16:32N 32°07' W 081°08'0 0.0
2015-Apr-23 15:33N 32°07' W 081°08'0 0.1
2015-Apr-23 14:33N 32°08' W 081°08'7 6.6
2015-Apr-23 13:33N 32°06' W 081°01'1211.8
2015-Apr-23 12:34N 32°01' W 080°48'1110.9
2015-Apr-23 11:31N 31°56' W 080°36'8 8.5
2015-Apr-23 10:33N 31°49' W 080°30'10 9.4
2015-Apr-23 09:32N 31°41' W 080°24'1211.5
2015-Apr-23 08:27N 31°30' W 080°17'1717.6
2015-Apr-23 07:28N 31°16' W 080°06'1717.8
2015-Apr-23 06:32N 31°02' W 079°55'2120.2
2015-Apr-23 05:29N 30°44' W 079°41'  
Track history (hours):
 
Tides and Currents Weather Stations Pressure Air Temp Water Temp Dewpoint Dewpoint Depression Visibility Wind Speed Wind Dir Waves Ship Positions

Nyk Constellation

Last reported at 2015-Apr-28 02:24 UTC. Time now 2015-Apr-28 18:19 UTC.
Position N 40°24' W 070°53'.

Length 294 m; draft 11.6 m.

Type: Cargo ship. MMSI: 538002992.

Date/timePositionNaut miles runAvg speedWind from/ knotsBaromVisibWave heightAir tempDewpointWater temp
2015-Apr-28 02:24N 40°24' W 070°53'1417.2
2015-Apr-28 01:33N 40°24' W 071°12'1717.4
2015-Apr-28 00:33N 40°24' W 071°35'1817.5
2015-Apr-27 23:33N 40°23' W 071°58'1817.6
2015-Apr-27 22:34N 40°22' W 072°21'1817.5
2015-Apr-27 21:33N 40°22' W 072°44'1817.5
2015-Apr-27 20:32N 40°22' W 073°07'1312.5
2015-Apr-27 19:28N 40°23' W 073°25'9 9.7
2015-Apr-27 18:33N 40°25' W 073°36'10 9.9
2015-Apr-27 17:33N 40°27' W 073°49'9 9.2
2015-Apr-27 16:34N 40°31' W 073°59'9 9.2
2015-Apr-27 15:33N 40°39' W 074°05'4 4.0
2015-Apr-27 14:33N 40°39' W 074°11'1 0.5
2015-Apr-27 13:30N 40°39' W 074°11'0 0.0
2015-Apr-27 12:33N 40°39' W 074°11'0 0.0
2015-Apr-27 11:33N 40°39' W 074°11'0 0.0
2015-Apr-27 10:27N 40°39' W 074°11'0 0.0
2015-Apr-27 09:33N 40°39' W 074°11'0 0.0
2015-Apr-27 08:33N 40°39' W 074°11'0 0.0
2015-Apr-27 07:33N 40°39' W 074°11'0 0.0
2015-Apr-27 06:27N 40°39' W 074°11'0 0.0
2015-Apr-27 05:33N 40°39' W 074°11'0 0.0
2015-Apr-27 04:33N 40°39' W 074°11'0 0.0
2015-Apr-27 03:33N 40°39' W 074°11'0 0.0
2015-Apr-27 02:33N 40°39' W 074°11'0 0.0
2015-Apr-27 01:33N 40°39' W 074°11'0 0.0
2015-Apr-27 00:33N 40°39' W 074°11'0 0.0
2015-Apr-26 23:33N 40°39' W 074°11'0 0.0
2015-Apr-26 22:33N 40°39' W 074°11'0 0.5
2015-Apr-26 21:33N 40°39' W 074°11'6 5.7
2015-Apr-26 20:33N 40°38' W 074°03'1110.8
2015-Apr-26 19:33N 40°29' W 073°55'8 7.6
2015-Apr-26 18:33N 40°25' W 073°47'9 8.7
2015-Apr-26 17:32N 40°16' W 073°46'9 9.5
2015-Apr-26 16:33N 40°07' W 073°45'1110.7
2015-Apr-26 15:33N 39°56' W 073°42'1615.6
2015-Apr-26 14:33N 39°41' W 073°41'1717.1
2015-Apr-26 13:33N 39°24' W 073°47'  
2015-Apr-24 07:33N 31°57' W 080°27'10 9.7
2015-Apr-24 06:33N 31°57' W 080°39'1111.1
2015-Apr-24 05:33N 32°02' W 080°51'10 9.6
2015-Apr-24 04:33N 32°06' W 081°01'5 4.7
2015-Apr-24 03:33N 32°06' W 081°07'2 1.9
2015-Apr-24 02:33N 32°07' W 081°08'0 0.0
2015-Apr-24 01:33N 32°07' W 081°08'0 0.0
2015-Apr-24 00:33N 32°07' W 081°08'0 0.0
2015-Apr-23 23:32N 32°07' W 081°08'0 0.0
2015-Apr-23 22:32N 32°07' W 081°08'0 0.0
2015-Apr-23 21:32N 32°07' W 081°08'0 0.0
2015-Apr-23 20:32N 32°07' W 081°08'0 0.0
2015-Apr-23 19:32N 32°07' W 081°08'0 0.0
2015-Apr-23 18:32N 32°07' W 081°08'0 0.0
2015-Apr-23 17:32N 32°07' W 081°08'0 0.0
2015-Apr-23 16:32N 32°07' W 081°08'0 0.0
2015-Apr-23 15:33N 32°07' W 081°08'0 0.1
2015-Apr-23 14:33N 32°08' W 081°08'7 6.6
2015-Apr-23 13:33N 32°06' W 081°01'1211.8
2015-Apr-23 12:34N 32°01' W 080°48'1110.9
2015-Apr-23 11:31N 31°56' W 080°36'8 8.5
2015-Apr-23 10:33N 31°49' W 080°30'10 9.4
2015-Apr-23 09:32N 31°41' W 080°24'1211.5
2015-Apr-23 08:27N 31°30' W 080°17'1717.6
2015-Apr-23 07:28N 31°16' W 080°06'1717.8
2015-Apr-23 06:32N 31°02' W 079°55'2120.2
2015-Apr-23 05:29N 30°44' W 079°41'  

Dump ship's entire track history